createdAt,value
2023-02-25T00:03:20.346Z,51.58
2023-02-25T00:07:23.145Z,54.08
2023-02-25T00:11:26.404Z,57.92
2023-02-25T00:15:28.545Z,58.22
2023-02-25T00:19:30.699Z,51.35
2023-02-25T00:23:32.928Z,58.88
2023-02-25T00:27:35.766Z,55.97
2023-02-25T00:31:38.099Z,51.95
2023-02-25T00:35:41.333Z,52.45
2023-02-25T00:39:43.600Z,50.70
2023-02-25T00:43:54.519Z,52.17
2023-02-25T00:47:56.944Z,47.20
2023-02-25T00:52:00.158Z,43.85
2023-02-25T00:56:02.577Z,51.92
2023-02-25T01:00:11.280Z,49.22
2023-02-25T01:04:13.412Z,45.92
2023-02-25T01:08:20.620Z,46.50
2023-02-25T01:12:24.009Z,46.70
2023-02-25T01:16:31.585Z,47.90
2023-02-25T01:20:38.561Z,46.67
2023-02-25T01:24:42.478Z,44.17
2023-02-25T01:28:45.350Z,41.63
2023-02-25T01:32:47.575Z,32.80
2023-02-25T01:36:49.730Z,34.85
2023-02-25T01:40:58.460Z,37.85
2023-02-25T01:45:33.177Z,36.70
2023-02-25T01:49:44.292Z,36.45
2023-02-25T01:53:47.742Z,36.55
2023-02-25T01:57:50.816Z,34.22
2023-02-25T02:01:53.014Z,33.65
2023-02-25T02:06:10.636Z,30.88
2023-02-25T02:10:15.423Z,33.88
2023-02-25T02:14:31.988Z,36.83
2023-02-25T02:18:36.861Z,36.47
2023-02-25T02:22:57.235Z,37.00
2023-02-25T02:27:10.133Z,36.38
2023-02-25T02:31:26.457Z,36.67
2023-02-25T02:35:52.131Z,40.75
2023-02-25T02:40:15.356Z,37.25
2023-02-25T02:44:31.393Z,38.28
2023-02-25T02:49:04.103Z,30.95
2023-02-25T02:53:13.710Z,26.67
2023-02-25T02:57:17.298Z,28.08
2023-02-25T03:01:26.029Z,30.67
2023-02-25T03:05:33.026Z,35.05
2023-02-25T03:10:02.699Z,34.22
2023-02-25T03:14:08.889Z,35.17
2023-02-25T03:18:21.552Z,33.85
2023-02-25T03:22:29.591Z,32.10
2023-02-25T03:26:33.682Z,30.58
2023-02-25T03:30:44.093Z,37.90
2023-02-25T03:34:49.940Z,34.75
2023-02-25T03:38:57.303Z,34.60
2023-02-25T03:43:11.577Z,32.53
2023-02-25T03:47:15.604Z,33.80
2023-02-25T03:51:24.068Z,34.50
2023-02-25T03:55:29.428Z,29.92
2023-02-25T03:59:32.076Z,31.45
2023-02-25T04:03:34.296Z,33.10
2023-02-25T04:07:36.929Z,34.50
2023-02-25T04:11:39.216Z,32.20
2023-02-25T04:15:42.228Z,34.00
2023-02-25T04:19:44.927Z,30.95
2023-02-25T04:23:47.284Z,32.15
2023-02-25T04:27:49.425Z,31.90
2023-02-25T04:31:52.543Z,30.50
2023-02-25T04:35:54.952Z,29.15
2023-02-25T04:39:57.904Z,26.38
2023-02-25T04:44:00.404Z,27.50
2023-02-25T04:48:02.769Z,23.90
2023-02-25T04:52:04.982Z,22.75
2023-02-25T04:56:09.176Z,21.83
2023-02-25T05:00:24.353Z,27.55
2023-02-25T05:04:26.513Z,27.85
2023-02-25T05:08:29.237Z,26.08
2023-02-25T05:12:31.360Z,22.65
2023-02-25T05:16:33.608Z,24.95
2023-02-25T05:20:44.606Z,23.80
2023-02-25T05:24:46.777Z,22.50
2023-02-25T05:28:50.847Z,22.27
2023-02-25T05:32:53.389Z,21.98
2023-02-25T05:36:55.611Z,21.38
2023-02-25T05:41:00.817Z,23.05
2023-02-25T05:45:04.288Z,21.83
2023-02-25T05:49:06.864Z,21.05
2023-02-25T05:53:10.055Z,21.75
2023-02-25T05:57:12.510Z,21.00
2023-02-25T06:01:22.844Z,22.52
2023-02-25T06:05:25.225Z,21.77
2023-02-25T06:09:27.455Z,20.92
2023-02-25T06:13:30.064Z,22.02
2023-02-25T06:17:32.273Z,21.10
2023-02-25T06:21:35.917Z,23.55
2023-02-25T06:25:38.025Z,23.83
2023-02-25T06:29:41.945Z,23.10
2023-02-25T06:33:45.672Z,22.67
2023-02-25T06:37:47.779Z,21.17
2023-02-25T06:41:49.966Z,21.33
2023-02-25T06:45:52.093Z,21.75
2023-02-25T06:49:54.145Z,21.60
2023-02-25T06:53:56.287Z,22.08
2023-02-25T06:57:58.458Z,21.08
2023-02-25T07:02:01.041Z,21.42
2023-02-25T07:06:03.795Z,19.42
2023-02-25T07:10:06.511Z,21.10
2023-02-25T07:14:08.649Z,18.73
2023-02-25T07:18:11.316Z,17.95
2023-02-25T07:22:16.789Z,18.17
2023-02-25T07:26:19.036Z,17.52
2023-02-25T07:30:21.111Z,17.05
2023-02-25T07:34:25.990Z,17.77
2023-02-25T07:38:28.129Z,17.00
2023-02-25T07:42:30.659Z,18.05
2023-02-25T07:46:36.405Z,17.20
2023-02-25T07:50:38.488Z,16.58
2023-02-25T07:54:40.722Z,17.52
2023-02-25T07:58:42.910Z,16.38
2023-02-25T08:02:45.578Z,17.00
2023-02-25T08:06:47.759Z,16.98
2023-02-25T08:10:50.102Z,16.92
2023-02-25T08:14:52.246Z,16.58
2023-02-25T08:18:55.007Z,15.57
2023-02-25T08:22:57.164Z,15.48
2023-02-25T08:26:59.296Z,17.20
2023-02-25T08:31:01.564Z,17.23
2023-02-25T08:35:03.821Z,19.17
2023-02-25T08:39:06.086Z,23.00
2023-02-25T08:43:09.349Z,20.77
2023-02-25T08:47:11.435Z,19.85
2023-02-25T08:51:15.224Z,21.75
2023-02-25T08:55:18.209Z,17.05
2023-02-25T08:59:20.384Z,14.98
2023-02-25T09:03:22.499Z,14.13
2023-02-25T09:07:24.570Z,14.23
2023-02-25T09:11:26.937Z,15.23
2023-02-25T09:15:29.209Z,15.07
2023-02-25T09:19:32.636Z,16.52
2023-02-25T09:23:34.937Z,15.88
2023-02-25T09:27:37.416Z,14.80
2023-02-25T09:31:39.973Z,14.82
2023-02-25T09:35:42.854Z,14.10
2023-02-25T09:39:44.924Z,15.25
2023-02-25T09:43:49.290Z,16.13
2023-02-25T09:52:07.888Z,17.85
2023-02-25T09:56:15.232Z,16.92
2023-02-25T10:00:19.008Z,16.73
2023-02-25T10:04:38.187Z,16.73
2023-02-25T10:09:03.519Z,16.73
2023-02-25T10:13:12.924Z,16.13
2023-02-25T10:17:31.291Z,16.85
2023-02-25T10:22:14.987Z,16.27
2023-02-25T10:26:27.769Z,18.02
2023-02-25T10:30:38.320Z,17.42
2023-02-25T10:34:41.956Z,17.73
2023-02-25T10:38:53.144Z,17.60
2023-02-25T10:43:00.850Z,17.30
2023-02-25T10:47:06.309Z,16.40
2023-02-25T10:51:16.430Z,16.45
2023-02-25T10:55:27.410Z,17.38
2023-02-25T10:59:38.652Z,16.45
2023-02-25T11:04:02.953Z,16.77
2023-02-25T11:08:18.305Z,16.40
2023-02-25T11:12:20.519Z,15.30
2023-02-25T11:16:22.710Z,15.85
2023-02-25T11:20:28.299Z,17.65
2023-02-25T11:24:34.709Z,17.50
2023-02-25T11:28:43.964Z,17.10
2023-02-25T11:32:54.197Z,17.30
2023-02-25T11:37:00.005Z,15.25
2023-02-25T11:41:03.206Z,30.10
2023-02-25T11:45:05.829Z,16.65
2023-02-25T11:49:22.278Z,17.13
2023-02-25T11:53:52.799Z,20.73
2023-02-25T11:58:10.206Z,16.20
2023-02-25T12:02:33.758Z,15.80
2023-02-25T12:06:58.171Z,15.50
2023-02-25T12:11:31.380Z,13.15
2023-02-25T12:16:01.965Z,14.10
2023-02-25T12:20:43.584Z,12.48
2023-02-25T12:25:04.432Z,12.50
2023-02-25T12:29:21.726Z,13.10
2023-02-25T12:33:45.439Z,14.82
2023-02-25T12:38:17.272Z,14.93
2023-02-25T12:42:44.377Z,13.63
2023-02-25T12:47:05.268Z,14.35
2023-02-25T12:51:22.194Z,13.52
2023-02-25T12:55:54.930Z,13.25
2023-02-25T13:00:17.452Z,12.85
2023-02-25T13:05:00.848Z,13.30
2023-02-25T13:09:07.276Z,13.35
2023-02-25T13:13:30.374Z,14.60
2023-02-25T13:17:50.968Z,13.32
2023-02-25T13:22:01.222Z,13.60
2023-02-25T13:26:30.338Z,12.77
2023-02-25T13:30:58.188Z,13.98
2023-02-25T13:35:18.890Z,14.52
2023-02-25T13:39:39.730Z,12.52
2023-02-25T13:44:19.187Z,14.20
2023-02-25T13:48:51.811Z,14.15
2023-02-25T13:53:26.642Z,13.80
2023-02-25T13:58:05.984Z,14.52
2023-02-25T14:02:42.377Z,13.35
2023-02-25T14:07:12.458Z,14.90
2023-02-25T14:11:57.776Z,12.85
2023-02-25T14:16:05.466Z,14.48
2023-02-25T14:20:21.226Z,14.63
2023-02-25T14:24:42.521Z,13.85
2023-02-25T14:28:54.086Z,13.90
2023-02-25T14:33:19.482Z,13.35
2023-02-25T14:37:59.330Z,16.25
2023-02-25T14:42:13.742Z,17.10
2023-02-25T14:46:45.234Z,34.40
2023-02-25T14:51:26.796Z,17.65
2023-02-25T14:56:06.821Z,16.30
2023-02-25T15:00:09.728Z,16.23
2023-02-25T15:04:17.845Z,15.90
2023-02-25T15:08:48.675Z,13.40
2023-02-25T15:13:00.574Z,16.70
2023-02-25T15:17:11.809Z,27.95
2023-02-25T15:21:37.425Z,26.10
2023-02-25T15:25:49.823Z,25.05
2023-02-25T15:30:06.101Z,53.63
2023-02-25T15:34:23.612Z,18.50
2023-02-25T15:38:40.045Z,21.50
2023-02-25T15:42:54.130Z,20.40
2023-02-25T15:47:11.205Z,17.83
2023-02-25T15:51:42.661Z,18.23
2023-02-25T15:55:45.054Z,18.83
2023-02-25T15:59:58.258Z,18.42
2023-02-25T16:04:01.201Z,26.45
2023-02-25T16:08:14.487Z,22.83
2023-02-25T16:12:17.801Z,34.10
2023-02-25T16:16:22.952Z,36.53
2023-02-25T16:20:33.106Z,23.80
2023-02-25T16:24:36.894Z,21.23
2023-02-25T16:29:03.515Z,20.80
2023-02-25T16:33:08.371Z,28.27
2023-02-25T16:37:20.337Z,27.80
2023-02-25T16:41:30.344Z,26.77
2023-02-25T16:45:53.379Z,29.85
2023-02-25T16:49:58.424Z,28.25
2023-02-25T16:54:19.902Z,26.88
2023-02-25T16:58:24.458Z,27.60
2023-02-25T17:02:26.588Z,38.20
2023-02-25T17:06:29.000Z,31.98
2023-02-25T17:10:43.792Z,34.30
2023-02-25T17:14:49.510Z,137.68
2023-02-25T17:18:57.609Z,36.03
2023-02-25T17:23:06.502Z,32.63
2023-02-25T17:27:12.521Z,28.95
2023-02-25T17:31:21.012Z,35.67
2023-02-25T17:35:23.476Z,35.55
2023-02-25T17:39:26.275Z,41.17
2023-02-25T17:43:47.127Z,28.08
2023-02-25T17:47:49.692Z,27.58
2023-02-25T17:51:55.618Z,32.58
2023-02-25T17:56:09.437Z,29.92
2023-02-25T18:00:24.727Z,29.38
2023-02-25T18:04:35.146Z,34.85
2023-02-25T18:08:55.724Z,31.13
2023-02-25T18:12:59.941Z,30.38
2023-02-25T18:17:12.743Z,30.83
2023-02-25T18:21:15.457Z,28.33
2023-02-25T18:25:39.037Z,31.63
2023-02-25T18:29:41.079Z,32.25
2023-02-25T18:33:43.312Z,34.25
2023-02-25T18:37:47.599Z,39.47
2023-02-25T18:41:49.658Z,39.45
2023-02-25T18:45:51.786Z,36.05
2023-02-25T18:49:53.979Z,30.77
2023-02-25T18:53:56.199Z,36.58
2023-02-25T18:57:58.883Z,37.63
2023-02-25T19:02:01.315Z,42.88
2023-02-25T19:06:04.486Z,34.60
2023-02-25T19:10:07.764Z,31.48
2023-02-25T19:14:17.972Z,31.65
2023-02-25T19:18:20.136Z,36.38
2023-02-25T19:22:22.851Z,34.00
2023-02-25T19:26:26.237Z,34.28
2023-02-25T19:30:35.807Z,43.87
2023-02-25T19:34:38.075Z,33.63
2023-02-25T19:38:40.362Z,29.17
2023-02-25T19:42:45.080Z,26.65
2023-02-25T19:46:47.318Z,27.90
2023-02-25T19:50:49.575Z,22.70
2023-02-25T19:54:51.676Z,20.02
2023-02-25T19:58:57.809Z,12.23
2023-02-25T20:02:59.890Z,7.82
2023-02-25T20:07:01.960Z,7.25
2023-02-25T20:11:09.546Z,6.32
2023-02-25T20:15:13.765Z,5.70
2023-02-25T20:19:16.020Z,6.20
2023-02-25T20:23:18.125Z,5.25
2023-02-25T20:27:20.312Z,5.60
2023-02-25T20:31:25.675Z,5.55
2023-02-25T20:35:28.939Z,6.50
2023-02-25T20:39:39.481Z,7.22
2023-02-25T20:43:41.762Z,7.18
2023-02-25T20:47:44.017Z,5.97
2023-02-25T20:51:47.711Z,7.68
2023-02-25T20:55:49.857Z,10.23
2023-02-25T20:59:53.952Z,7.90
2023-02-25T21:03:56.682Z,7.38
2023-02-25T21:07:58.774Z,12.10
2023-02-25T21:12:01.370Z,10.18
2023-02-25T21:16:06.327Z,7.57
2023-02-25T21:20:11.114Z,8.52
2023-02-25T21:24:15.288Z,9.85
2023-02-25T21:28:17.654Z,9.68
2023-02-25T21:32:19.862Z,11.10
2023-02-25T21:36:22.359Z,11.23
2023-02-25T21:40:24.635Z,10.43
2023-02-25T21:44:27.333Z,10.23
2023-02-25T21:48:31.250Z,12.45
2023-02-25T21:52:33.541Z,23.17
2023-02-25T21:56:35.720Z,27.40
2023-02-25T22:00:38.988Z,22.83
2023-02-25T22:04:41.162Z,23.40
2023-02-25T22:08:45.922Z,20.05
2023-02-25T22:12:47.993Z,15.52
2023-02-25T22:16:50.396Z,15.63
2023-02-25T22:20:53.299Z,16.42
2023-02-25T22:24:56.053Z,16.13
2023-02-25T22:29:02.006Z,14.55
2023-02-25T22:33:04.411Z,13.55
2023-02-25T22:37:06.641Z,14.35
2023-02-25T22:41:14.809Z,14.88
2023-02-25T22:45:17.539Z,13.35
2023-02-25T22:49:19.738Z,13.43
2023-02-25T22:53:22.379Z,15.02
2023-02-25T22:57:24.524Z,16.00
2023-02-25T23:01:27.402Z,14.27
2023-02-25T23:05:29.599Z,14.18
2023-02-25T23:09:31.626Z,16.70
2023-02-25T23:13:33.716Z,23.00
2023-02-25T23:17:35.935Z,17.13
2023-02-25T23:21:41.142Z,18.58
2023-02-25T23:25:43.360Z,16.15
2023-02-25T23:29:45.475Z,17.25
2023-02-25T23:33:48.347Z,19.23
2023-02-25T23:37:50.845Z,18.85
2023-02-25T23:41:53.082Z,21.50
2023-02-25T23:45:55.527Z,21.85
2023-02-25T23:49:57.989Z,22.90
2023-02-25T23:54:04.093Z,21.65
2023-02-25T23:58:06.356Z,22.98
